sensor_id;sensor_type;location;lat;lon;timestamp;P1;durP1;ratioP1;P2;durP2;ratioP2
23317;SDS011;11831;55.918;37.746;2023-06-22T00:02:25;22.60;;;9.57;;
23317;SDS011;11831;55.918;37.746;2023-06-22T00:04:52;20.45;;;10.15;;
23317;SDS011;11831;55.918;37.746;2023-06-22T00:07:18;22.20;;;10.68;;
23317;SDS011;11831;55.918;37.746;2023-06-22T00:09:45;22.10;;;11.18;;
23317;SDS011;11831;55.918;37.746;2023-06-22T00:12:11;32.15;;;12.82;;
23317;SDS011;11831;55.918;37.746;2023-06-22T00:14:38;30.10;;;12.63;;
23317;SDS011;11831;55.918;37.746;2023-06-22T00:17:05;27.05;;;13.02;;
23317;SDS011;11831;55.918;37.746;2023-06-22T00:19:31;31.27;;;12.75;;
23317;SDS011;11831;55.918;37.746;2023-06-22T00:22:01;29.37;;;11.65;;
23317;SDS011;11831;55.918;37.746;2023-06-22T00:24:29;36.50;;;12.27;;
23317;SDS011;11831;55.918;37.746;2023-06-22T00:26:56;29.80;;;11.73;;
23317;SDS011;11831;55.918;37.746;2023-06-22T00:29:23;27.10;;;11.90;;
23317;SDS011;11831;55.918;37.746;2023-06-22T00:31:49;37.10;;;12.95;;
23317;SDS011;11831;55.918;37.746;2023-06-22T00:34:16;26.23;;;11.27;;
23317;SDS011;11831;55.918;37.746;2023-06-22T00:36:43;28.10;;;11.20;;
23317;SDS011;11831;55.918;37.746;2023-06-22T00:39:10;30.05;;;11.18;;
23317;SDS011;11831;55.918;37.746;2023-06-22T00:41:36;29.20;;;11.98;;
23317;SDS011;11831;55.918;37.746;2023-06-22T00:44:03;28.23;;;13.00;;
23317;SDS011;11831;55.918;37.746;2023-06-22T00:46:30;36.00;;;12.82;;
23317;SDS011;11831;55.918;37.746;2023-06-22T00:48:58;38.63;;;12.25;;
23317;SDS011;11831;55.918;37.746;2023-06-22T00:51:25;26.40;;;13.05;;
23317;SDS011;11831;55.918;37.746;2023-06-22T00:53:52;33.60;;;13.85;;
23317;SDS011;11831;55.918;37.746;2023-06-22T00:56:20;29.87;;;12.50;;
23317;SDS011;11831;55.918;37.746;2023-06-22T00:58:50;26.85;;;14.38;;
23317;SDS011;11831;55.918;37.746;2023-06-22T01:01:19;32.63;;;13.98;;
23317;SDS011;11831;55.918;37.746;2023-06-22T01:03:49;28.92;;;12.85;;
23317;SDS011;11831;55.918;37.746;2023-06-22T01:06:19;31.90;;;13.73;;
23317;SDS011;11831;55.918;37.746;2023-06-22T01:08:57;27.27;;;12.75;;
23317;SDS011;11831;55.918;37.746;2023-06-22T01:11:36;36.30;;;13.48;;
23317;SDS011;11831;55.918;37.746;2023-06-22T01:16:44;31.77;;;13.77;;
23317;SDS011;11831;55.918;37.746;2023-06-22T01:21:41;28.95;;;12.77;;
23317;SDS011;11831;55.918;37.746;2023-06-22T01:24:16;27.02;;;12.60;;
23317;SDS011;11831;55.918;37.746;2023-06-22T01:29:42;32.17;;;13.25;;
23317;SDS011;11831;55.918;37.746;2023-06-22T01:32:10;26.75;;;13.38;;
23317;SDS011;11831;55.918;37.746;2023-06-22T01:34:38;27.35;;;14.50;;
23317;SDS011;11831;55.918;37.746;2023-06-22T01:37:06;26.00;;;13.70;;
23317;SDS011;11831;55.918;37.746;2023-06-22T01:39:33;22.48;;;12.65;;
23317;SDS011;11831;55.918;37.746;2023-06-22T01:42:01;24.98;;;13.82;;
23317;SDS011;11831;55.918;37.746;2023-06-22T01:44:29;28.92;;;15.52;;
23317;SDS011;11831;55.918;37.746;2023-06-22T01:46:56;36.83;;;14.40;;
23317;SDS011;11831;55.918;37.746;2023-06-22T01:49:22;26.45;;;16.00;;
23317;SDS011;11831;55.918;37.746;2023-06-22T01:51:49;32.17;;;14.98;;
23317;SDS011;11831;55.918;37.746;2023-06-22T01:54:16;25.67;;;13.62;;
23317;SDS011;11831;55.918;37.746;2023-06-22T01:56:42;34.05;;;15.73;;
23317;SDS011;11831;55.918;37.746;2023-06-22T01:59:11;30.40;;;18.83;;
23317;SDS011;11831;55.918;37.746;2023-06-22T02:02:01;33.20;;;17.95;;
23317;SDS011;11831;55.918;37.746;2023-06-22T02:04:54;29.15;;;17.70;;
23317;SDS011;11831;55.918;37.746;2023-06-22T02:07:21;31.25;;;17.73;;
23317;SDS011;11831;55.918;37.746;2023-06-22T02:09:50;28.23;;;17.85;;
23317;SDS011;11831;55.918;37.746;2023-06-22T02:12:23;22.52;;;16.52;;
23317;SDS011;11831;55.918;37.746;2023-06-22T02:14:53;30.75;;;17.58;;
23317;SDS011;11831;55.918;37.746;2023-06-22T02:17:20;27.60;;;15.55;;
23317;SDS011;11831;55.918;37.746;2023-06-22T02:19:48;30.62;;;17.20;;
23317;SDS011;11831;55.918;37.746;2023-06-22T02:22:14;29.73;;;17.98;;
23317;SDS011;11831;55.918;37.746;2023-06-22T02:24:41;22.90;;;14.73;;
23317;SDS011;11831;55.918;37.746;2023-06-22T02:27:07;26.35;;;15.30;;
23317;SDS011;11831;55.918;37.746;2023-06-22T02:29:34;24.70;;;14.32;;
23317;SDS011;11831;55.918;37.746;2023-06-22T02:32:01;25.02;;;13.98;;
23317;SDS011;11831;55.918;37.746;2023-06-22T02:34:28;25.35;;;14.87;;
23317;SDS011;11831;55.918;37.746;2023-06-22T02:36:54;25.40;;;13.50;;
23317;SDS011;11831;55.918;37.746;2023-06-22T02:39:22;26.65;;;13.85;;
23317;SDS011;11831;55.918;37.746;2023-06-22T02:41:50;31.27;;;13.95;;
23317;SDS011;11831;55.918;37.746;2023-06-22T02:44:18;24.52;;;13.20;;
23317;SDS011;11831;55.918;37.746;2023-06-22T02:46:46;19.70;;;12.50;;
23317;SDS011;11831;55.918;37.746;2023-06-22T02:49:14;20.75;;;13.60;;
23317;SDS011;11831;55.918;37.746;2023-06-22T02:51:42;27.27;;;12.63;;
23317;SDS011;11831;55.918;37.746;2023-06-22T02:54:11;21.17;;;12.07;;
23317;SDS011;11831;55.918;37.746;2023-06-22T02:56:38;20.73;;;11.63;;
23317;SDS011;11831;55.918;37.746;2023-06-22T02:59:06;17.58;;;11.48;;
23317;SDS011;11831;55.918;37.746;2023-06-22T03:01:33;20.90;;;11.77;;
23317;SDS011;11831;55.918;37.746;2023-06-22T03:04:06;18.48;;;11.68;;
23317;SDS011;11831;55.918;37.746;2023-06-22T03:06:33;20.05;;;12.02;;
23317;SDS011;11831;55.918;37.746;2023-06-22T03:09:00;15.43;;;10.70;;
23317;SDS011;11831;55.918;37.746;2023-06-22T03:11:31;16.83;;;12.07;;
23317;SDS011;11831;55.918;37.746;2023-06-22T03:13:59;19.37;;;11.63;;
23317;SDS011;11831;55.918;37.746;2023-06-22T03:16:27;19.90;;;11.12;;
23317;SDS011;11831;55.918;37.746;2023-06-22T03:18:53;19.87;;;11.60;;
23317;SDS011;11831;55.918;37.746;2023-06-22T03:21:21;22.55;;;12.98;;
23317;SDS011;11831;55.918;37.746;2023-06-22T03:23:49;17.60;;;11.30;;
23317;SDS011;11831;55.918;37.746;2023-06-22T03:26:18;20.65;;;11.90;;
23317;SDS011;11831;55.918;37.746;2023-06-22T03:28:45;17.17;;;11.40;;
23317;SDS011;11831;55.918;37.746;2023-06-22T03:31:12;20.60;;;11.82;;
23317;SDS011;11831;55.918;37.746;2023-06-22T03:33:39;20.17;;;12.05;;
23317;SDS011;11831;55.918;37.746;2023-06-22T03:36:06;17.00;;;11.38;;
23317;SDS011;11831;55.918;37.746;2023-06-22T03:38:33;20.95;;;12.77;;
23317;SDS011;11831;55.918;37.746;2023-06-22T03:40:59;16.15;;;11.18;;
23317;SDS011;11831;55.918;37.746;2023-06-22T03:43:26;22.20;;;11.38;;
23317;SDS011;11831;55.918;37.746;2023-06-22T03:45:52;19.83;;;11.80;;
23317;SDS011;11831;55.918;37.746;2023-06-22T03:48:19;19.23;;;11.93;;
23317;SDS011;11831;55.918;37.746;2023-06-22T03:50:46;18.77;;;11.98;;
23317;SDS011;11831;55.918;37.746;2023-06-22T03:53:13;16.62;;;11.55;;
23317;SDS011;11831;55.918;37.746;2023-06-22T03:55:49;17.48;;;10.18;;
23317;SDS011;11831;55.918;37.746;2023-06-22T03:58:17;17.30;;;10.70;;
23317;SDS011;11831;55.918;37.746;2023-06-22T04:00:48;18.27;;;11.35;;
23317;SDS011;11831;55.918;37.746;2023-06-22T04:03:15;19.98;;;11.40;;
23317;SDS011;11831;55.918;37.746;2023-06-22T04:05:45;17.92;;;10.95;;
23317;SDS011;11831;55.918;37.746;2023-06-22T04:08:12;22.27;;;9.65;;
23317;SDS011;11831;55.918;37.746;2023-06-22T04:10:40;19.33;;;10.27;;
23317;SDS011;11831;55.918;37.746;2023-06-22T04:13:06;13.85;;;9.80;;
23317;SDS011;11831;55.918;37.746;2023-06-22T04:15:33;20.33;;;9.93;;
23317;SDS011;11831;55.918;37.746;2023-06-22T04:17:59;15.05;;;8.55;;
23317;SDS011;11831;55.918;37.746;2023-06-22T04:20:26;16.20;;;10.27;;
23317;SDS011;11831;55.918;37.746;2023-06-22T04:22:53;18.02;;;10.20;;
23317;SDS011;11831;55.918;37.746;2023-06-22T04:25:20;17.33;;;9.43;;
23317;SDS011;11831;55.918;37.746;2023-06-22T04:27:47;12.75;;;8.68;;
23317;SDS011;11831;55.918;37.746;2023-06-22T04:30:14;15.15;;;8.70;;
23317;SDS011;11831;55.918;37.746;2023-06-22T04:32:42;15.30;;;9.45;;
23317;SDS011;11831;55.918;37.746;2023-06-22T04:35:10;15.35;;;9.02;;
23317;SDS011;11831;55.918;37.746;2023-06-22T04:37:37;17.87;;;9.35;;
23317;SDS011;11831;55.918;37.746;2023-06-22T04:40:05;20.98;;;9.25;;
23317;SDS011;11831;55.918;37.746;2023-06-22T04:42:33;16.62;;;8.50;;
23317;SDS011;11831;55.918;37.746;2023-06-22T04:45:02;19.20;;;9.07;;
23317;SDS011;11831;55.918;37.746;2023-06-22T04:47:31;12.27;;;8.10;;
23317;SDS011;11831;55.918;37.746;2023-06-22T04:49:58;12.80;;;7.03;;
23317;SDS011;11831;55.918;37.746;2023-06-22T04:52:24;11.50;;;7.95;;
23317;SDS011;11831;55.918;37.746;2023-06-22T04:54:51;10.90;;;6.53;;
23317;SDS011;11831;55.918;37.746;2023-06-22T04:57:21;11.68;;;6.57;;
23317;SDS011;11831;55.918;37.746;2023-06-22T04:59:59;12.30;;;6.32;;
23317;SDS011;11831;55.918;37.746;2023-06-22T05:02:38;10.73;;;5.47;;
23317;SDS011;11831;55.918;37.746;2023-06-22T05:05:05;12.52;;;6.35;;
23317;SDS011;11831;55.918;37.746;2023-06-22T05:07:33;10.10;;;5.93;;
23317;SDS011;11831;55.918;37.746;2023-06-22T05:10:01;11.50;;;5.75;;
23317;SDS011;11831;55.918;37.746;2023-06-22T05:12:30;11.63;;;5.93;;
23317;SDS011;11831;55.918;37.746;2023-06-22T05:14:57;8.75;;;6.20;;
23317;SDS011;11831;55.918;37.746;2023-06-22T05:17:24;9.40;;;5.62;;
23317;SDS011;11831;55.918;37.746;2023-06-22T05:19:51;8.18;;;5.65;;
23317;SDS011;11831;55.918;37.746;2023-06-22T05:22:17;11.70;;;4.90;;
23317;SDS011;11831;55.918;37.746;2023-06-22T05:24:45;8.57;;;5.32;;
23317;SDS011;11831;55.918;37.746;2023-06-22T05:27:12;11.00;;;5.53;;
23317;SDS011;11831;55.918;37.746;2023-06-22T05:29:39;10.55;;;5.35;;
23317;SDS011;11831;55.918;37.746;2023-06-22T05:32:07;10.23;;;5.07;;
23317;SDS011;11831;55.918;37.746;2023-06-22T05:34:34;8.43;;;5.05;;
23317;SDS011;11831;55.918;37.746;2023-06-22T05:37:00;8.18;;;5.18;;
23317;SDS011;11831;55.918;37.746;2023-06-22T05:39:27;8.90;;;4.95;;
23317;SDS011;11831;55.918;37.746;2023-06-22T05:41:54;9.32;;;5.20;;
23317;SDS011;11831;55.918;37.746;2023-06-22T05:44:21;9.07;;;5.82;;
23317;SDS011;11831;55.918;37.746;2023-06-22T05:46:48;9.70;;;5.30;;
23317;SDS011;11831;55.918;37.746;2023-06-22T05:49:15;7.20;;;4.15;;
23317;SDS011;11831;55.918;37.746;2023-06-22T05:51:42;7.97;;;4.55;;
23317;SDS011;11831;55.918;37.746;2023-06-22T05:54:08;7.25;;;4.60;;
23317;SDS011;11831;55.918;37.746;2023-06-22T05:56:35;7.20;;;4.47;;
23317;SDS011;11831;55.918;37.746;2023-06-22T05:59:02;9.43;;;4.65;;
23317;SDS011;11831;55.918;37.746;2023-06-22T06:01:30;11.93;;;4.75;;
23317;SDS011;11831;55.918;37.746;2023-06-22T06:04:00;8.27;;;4.30;;
23317;SDS011;11831;55.918;37.746;2023-06-22T06:06:27;6.45;;;4.37;;
23317;SDS011;11831;55.918;37.746;2023-06-22T06:08:54;6.43;;;4.00;;
23317;SDS011;11831;55.918;37.746;2023-06-22T06:11:22;6.72;;;4.20;;
23317;SDS011;11831;55.918;37.746;2023-06-22T06:13:49;8.00;;;4.32;;
23317;SDS011;11831;55.918;37.746;2023-06-22T06:16:16;7.55;;;4.10;;
23317;SDS011;11831;55.918;37.746;2023-06-22T06:18:42;5.45;;;3.92;;
23317;SDS011;11831;55.918;37.746;2023-06-22T06:21:09;8.05;;;4.07;;
23317;SDS011;11831;55.918;37.746;2023-06-22T06:23:35;8.02;;;4.32;;
23317;SDS011;11831;55.918;37.746;2023-06-22T06:26:02;8.98;;;4.47;;
23317;SDS011;11831;55.918;37.746;2023-06-22T06:30:59;8.07;;;4.00;;
23317;SDS011;11831;55.918;37.746;2023-06-22T06:33:26;3.67;;;3.37;;
23317;SDS011;11831;55.918;37.746;2023-06-22T06:35:53;4.55;;;3.33;;
23317;SDS011;11831;55.918;37.746;2023-06-22T06:38:22;6.12;;;3.37;;
23317;SDS011;11831;55.918;37.746;2023-06-22T06:40:48;5.65;;;3.97;;
23317;SDS011;11831;55.918;37.746;2023-06-22T06:43:15;5.15;;;3.65;;
23317;SDS011;11831;55.918;37.746;2023-06-22T06:45:42;5.78;;;3.55;;
23317;SDS011;11831;55.918;37.746;2023-06-22T06:48:08;7.12;;;3.78;;
23317;SDS011;11831;55.918;37.746;2023-06-22T06:50:36;5.35;;;3.87;;
23317;SDS011;11831;55.918;37.746;2023-06-22T06:53:02;3.50;;;3.00;;
23317;SDS011;11831;55.918;37.746;2023-06-22T06:55:29;3.72;;;2.95;;
23317;SDS011;11831;55.918;37.746;2023-06-22T06:57:58;6.97;;;3.30;;
23317;SDS011;11831;55.918;37.746;2023-06-22T07:00:25;5.65;;;3.42;;
23317;SDS011;11831;55.918;37.746;2023-06-22T07:02:52;4.35;;;3.33;;
23317;SDS011;11831;55.918;37.746;2023-06-22T07:05:19;4.65;;;3.58;;
23317;SDS011;11831;55.918;37.746;2023-06-22T07:07:46;6.97;;;3.20;;
23317;SDS011;11831;55.918;37.746;2023-06-22T07:10:13;7.25;;;3.40;;
23317;SDS011;11831;55.918;37.746;2023-06-22T07:12:41;3.12;;;2.83;;
23317;SDS011;11831;55.918;37.746;2023-06-22T07:15:08;4.65;;;3.53;;
23317;SDS011;11831;55.918;37.746;2023-06-22T07:17:36;3.62;;;3.33;;
23317;SDS011;11831;55.918;37.746;2023-06-22T07:20:03;5.95;;;3.65;;
23317;SDS011;11831;55.918;37.746;2023-06-22T07:22:39;3.20;;;2.90;;
23317;SDS011;11831;55.918;37.746;2023-06-22T07:25:13;6.00;;;3.35;;
23317;SDS011;11831;55.918;37.746;2023-06-22T07:30:31;8.20;;;3.78;;
23317;SDS011;11831;55.918;37.746;2023-06-22T07:32:59;4.20;;;3.40;;
23317;SDS011;11831;55.918;37.746;2023-06-22T07:35:30;5.28;;;3.15;;
23317;SDS011;11831;55.918;37.746;2023-06-22T07:37:57;8.07;;;3.72;;
23317;SDS011;11831;55.918;37.746;2023-06-22T07:40:23;4.97;;;3.58;;
23317;SDS011;11831;55.918;37.746;2023-06-22T07:42:50;5.62;;;4.12;;
23317;SDS011;11831;55.918;37.746;2023-06-22T07:45:20;4.07;;;3.40;;
23317;SDS011;11831;55.918;37.746;2023-06-22T07:47:47;4.22;;;3.53;;
23317;SDS011;11831;55.918;37.746;2023-06-22T07:50:13;8.27;;;3.70;;
23317;SDS011;11831;55.918;37.746;2023-06-22T07:52:40;4.32;;;3.50;;
23317;SDS011;11831;55.918;37.746;2023-06-22T07:55:07;4.20;;;3.42;;
23317;SDS011;11831;55.918;37.746;2023-06-22T07:57:34;6.68;;;3.53;;
23317;SDS011;11831;55.918;37.746;2023-06-22T08:00:03;3.67;;;3.37;;
23317;SDS011;11831;55.918;37.746;2023-06-22T08:02:40;6.57;;;3.50;;
23317;SDS011;11831;55.918;37.746;2023-06-22T08:05:09;8.15;;;3.87;;
23317;SDS011;11831;55.918;37.746;2023-06-22T08:07:37;4.22;;;3.80;;
23317;SDS011;11831;55.918;37.746;2023-06-22T08:10:06;6.22;;;3.70;;
23317;SDS011;11831;55.918;37.746;2023-06-22T08:12:39;5.75;;;3.42;;
23317;SDS011;11831;55.918;37.746;2023-06-22T08:15:06;8.52;;;3.87;;
23317;SDS011;11831;55.918;37.746;2023-06-22T08:17:33;4.57;;;3.42;;
23317;SDS011;11831;55.918;37.746;2023-06-22T08:20:00;4.28;;;3.87;;
23317;SDS011;11831;55.918;37.746;2023-06-22T08:22:31;5.10;;;3.27;;
23317;SDS011;11831;55.918;37.746;2023-06-22T08:24:59;4.43;;;3.80;;
23317;SDS011;11831;55.918;37.746;2023-06-22T08:27:26;4.70;;;3.20;;
23317;SDS011;11831;55.918;37.746;2023-06-22T08:29:54;6.85;;;3.90;;
23317;SDS011;11831;55.918;37.746;2023-06-22T08:32:27;6.75;;;3.60;;
23317;SDS011;11831;55.918;37.746;2023-06-22T08:34:55;6.30;;;3.62;;
23317;SDS011;11831;55.918;37.746;2023-06-22T08:37:22;5.78;;;3.55;;
23317;SDS011;11831;55.918;37.746;2023-06-22T08:39:59;5.03;;;3.50;;
23317;SDS011;11831;55.918;37.746;2023-06-22T08:42:29;4.43;;;3.47;;
23317;SDS011;11831;55.918;37.746;2023-06-22T08:44:56;5.95;;;3.60;;
23317;SDS011;11831;55.918;37.746;2023-06-22T08:47:23;6.20;;;3.40;;
23317;SDS011;11831;55.918;37.746;2023-06-22T08:49:49;3.67;;;3.12;;
23317;SDS011;11831;55.918;37.746;2023-06-22T08:52:17;4.93;;;3.50;;
23317;SDS011;11831;55.918;37.746;2023-06-22T08:54:44;4.55;;;3.30;;
23317;SDS011;11831;55.918;37.746;2023-06-22T08:57:11;4.85;;;4.10;;
23317;SDS011;11831;55.918;37.746;2023-06-22T08:59:37;4.20;;;3.72;;
23317;SDS011;11831;55.918;37.746;2023-06-22T09:02:04;4.50;;;3.78;;
23317;SDS011;11831;55.918;37.746;2023-06-22T09:04:31;4.80;;;3.35;;
23317;SDS011;11831;55.918;37.746;2023-06-22T09:07:01;4.55;;;3.40;;
23317;SDS011;11831;55.918;37.746;2023-06-22T09:09:27;4.68;;;3.42;;
23317;SDS011;11831;55.918;37.746;2023-06-22T09:11:54;3.50;;;3.20;;
23317;SDS011;11831;55.918;37.746;2023-06-22T09:14:21;5.82;;;3.33;;
23317;SDS011;11831;55.918;37.746;2023-06-22T09:16:48;4.60;;;3.28;;
23317;SDS011;11831;55.918;37.746;2023-06-22T09:19:14;7.10;;;3.78;;
23317;SDS011;11831;55.918;37.746;2023-06-22T09:21:41;4.95;;;3.55;;
23317;SDS011;11831;55.918;37.746;2023-06-22T09:24:07;5.47;;;3.72;;
23317;SDS011;11831;55.918;37.746;2023-06-22T09:26:34;10.20;;;9.23;;
23317;SDS011;11831;55.918;37.746;2023-06-22T09:29:01;5.75;;;4.07;;
23317;SDS011;11831;55.918;37.746;2023-06-22T09:31:27;7.12;;;3.83;;
23317;SDS011;11831;55.918;37.746;2023-06-22T09:33:54;6.47;;;4.37;;
23317;SDS011;11831;55.918;37.746;2023-06-22T09:36:21;5.78;;;4.07;;
23317;SDS011;11831;55.918;37.746;2023-06-22T09:38:48;5.75;;;3.50;;
23317;SDS011;11831;55.918;37.746;2023-06-22T09:41:21;3.83;;;3.42;;
23317;SDS011;11831;55.918;37.746;2023-06-22T09:43:49;3.83;;;3.40;;
23317;SDS011;11831;55.918;37.746;2023-06-22T09:46:16;4.78;;;4.28;;
23317;SDS011;11831;55.918;37.746;2023-06-22T09:48:43;5.35;;;3.70;;
23317;SDS011;11831;55.918;37.746;2023-06-22T09:51:11;3.70;;;3.40;;
23317;SDS011;11831;55.918;37.746;2023-06-22T09:53:38;3.62;;;3.30;;
23317;SDS011;11831;55.918;37.746;2023-06-22T09:56:05;5.82;;;4.03;;
23317;SDS011;11831;55.918;37.746;2023-06-22T09:58:32;6.15;;;4.43;;
23317;SDS011;11831;55.918;37.746;2023-06-22T10:00:59;6.07;;;5.25;;
23317;SDS011;11831;55.918;37.746;2023-06-22T10:03:25;4.85;;;3.60;;
23317;SDS011;11831;55.918;37.746;2023-06-22T10:05:52;4.35;;;3.83;;
23317;SDS011;11831;55.918;37.746;2023-06-22T10:08:18;3.85;;;3.37;;
23317;SDS011;11831;55.918;37.746;2023-06-22T10:10:45;3.55;;;3.22;;
23317;SDS011;11831;55.918;37.746;2023-06-22T10:13:12;5.75;;;3.90;;
23317;SDS011;11831;55.918;37.746;2023-06-22T10:15:38;6.50;;;3.97;;
23317;SDS011;11831;55.918;37.746;2023-06-22T10:18:05;7.37;;;3.97;;
23317;SDS011;11831;55.918;37.746;2023-06-22T10:20:32;4.47;;;3.92;;
23317;SDS011;11831;55.918;37.746;2023-06-22T10:22:59;6.28;;;3.87;;
23317;SDS011;11831;55.918;37.746;2023-06-22T10:25:26;10.00;;;4.22;;
23317;SDS011;11831;55.918;37.746;2023-06-22T10:27:53;18.42;;;4.95;;
23317;SDS011;11831;55.918;37.746;2023-06-22T10:30:19;8.40;;;4.03;;
23317;SDS011;11831;55.918;37.746;2023-06-22T10:32:47;10.13;;;4.70;;
23317;SDS011;11831;55.918;37.746;2023-06-22T10:35:13;12.63;;;4.80;;
23317;SDS011;11831;55.918;37.746;2023-06-22T10:37:42;7.05;;;4.43;;
23317;SDS011;11831;55.918;37.746;2023-06-22T10:40:10;6.72;;;4.35;;
23317;SDS011;11831;55.918;37.746;2023-06-22T10:42:38;5.57;;;3.97;;
23317;SDS011;11831;55.918;37.746;2023-06-22T10:45:05;4.50;;;4.10;;
23317;SDS011;11831;55.918;37.746;2023-06-22T10:47:33;5.70;;;4.15;;
23317;SDS011;11831;55.918;37.746;2023-06-22T10:50:00;6.12;;;3.85;;
23317;SDS011;11831;55.918;37.746;2023-06-22T10:52:31;8.32;;;5.05;;
23317;SDS011;11831;55.918;37.746;2023-06-22T10:54:58;5.62;;;3.92;;
23317;SDS011;11831;55.918;37.746;2023-06-22T10:57:24;4.82;;;4.30;;
23317;SDS011;11831;55.918;37.746;2023-06-22T10:59:51;10.60;;;4.53;;
23317;SDS011;11831;55.918;37.746;2023-06-22T11:02:18;4.60;;;4.05;;
23317;SDS011;11831;55.918;37.746;2023-06-22T11:04:45;7.60;;;4.65;;
23317;SDS011;11831;55.918;37.746;2023-06-22T11:07:12;4.57;;;4.18;;
23317;SDS011;11831;55.918;37.746;2023-06-22T11:09:38;6.43;;;4.25;;
23317;SDS011;11831;55.918;37.746;2023-06-22T11:12:05;16.62;;;4.70;;
23317;SDS011;11831;55.918;37.746;2023-06-22T11:14:32;6.25;;;4.43;;
23317;SDS011;11831;55.918;37.746;2023-06-22T11:17:02;5.40;;;4.50;;
23317;SDS011;11831;55.918;37.746;2023-06-22T11:19:28;6.85;;;4.65;;
23317;SDS011;11831;55.918;37.746;2023-06-22T11:21:55;5.07;;;4.57;;
23317;SDS011;11831;55.918;37.746;2023-06-22T11:24:21;6.43;;;4.20;;
23317;SDS011;11831;55.918;37.746;2023-06-22T11:26:48;5.20;;;4.65;;
23317;SDS011;11831;55.918;37.746;2023-06-22T11:29:14;8.88;;;4.68;;
23317;SDS011;11831;55.918;37.746;2023-06-22T11:31:41;6.22;;;4.43;;
23317;SDS011;11831;55.918;37.746;2023-06-22T11:34:09;7.00;;;4.45;;
23317;SDS011;11831;55.918;37.746;2023-06-22T11:36:35;9.07;;;4.50;;
23317;SDS011;11831;55.918;37.746;2023-06-22T11:39:02;8.98;;;4.87;;
23317;SDS011;11831;55.918;37.746;2023-06-22T11:41:28;5.43;;;4.57;;
23317;SDS011;11831;55.918;37.746;2023-06-22T11:43:55;6.43;;;4.45;;
23317;SDS011;11831;55.918;37.746;2023-06-22T11:46:21;8.88;;;5.00;;
23317;SDS011;11831;55.918;37.746;2023-06-22T11:48:48;6.45;;;4.90;;
23317;SDS011;11831;55.918;37.746;2023-06-22T11:51:14;6.00;;;4.35;;
23317;SDS011;11831;55.918;37.746;2023-06-22T11:53:41;5.05;;;4.60;;
23317;SDS011;11831;55.918;37.746;2023-06-22T11:56:07;4.55;;;4.15;;
23317;SDS011;11831;55.918;37.746;2023-06-22T11:58:34;5.50;;;4.53;;
23317;SDS011;11831;55.918;37.746;2023-06-22T12:01:00;5.15;;;4.30;;
23317;SDS011;11831;55.918;37.746;2023-06-22T12:03:27;6.47;;;4.53;;
23317;SDS011;11831;55.918;37.746;2023-06-22T12:05:53;5.53;;;4.40;;
23317;SDS011;11831;55.918;37.746;2023-06-22T12:08:20;5.40;;;4.80;;
23317;SDS011;11831;55.918;37.746;2023-06-22T12:10:48;6.85;;;5.00;;
23317;SDS011;11831;55.918;37.746;2023-06-22T12:13:15;7.85;;;5.15;;
23317;SDS011;11831;55.918;37.746;2023-06-22T12:15:42;7.20;;;5.30;;
23317;SDS011;11831;55.918;37.746;2023-06-22T12:18:08;5.30;;;4.80;;
23317;SDS011;11831;55.918;37.746;2023-06-22T12:20:35;4.72;;;4.32;;
23317;SDS011;11831;55.918;37.746;2023-06-22T12:23:02;5.57;;;4.95;;
23317;SDS011;11831;55.918;37.746;2023-06-22T12:25:28;6.32;;;5.22;;
23317;SDS011;11831;55.918;37.746;2023-06-22T12:27:55;5.90;;;5.30;;
23317;SDS011;11831;55.918;37.746;2023-06-22T12:30:21;8.98;;;7.97;;
23317;SDS011;11831;55.918;37.746;2023-06-22T12:32:48;5.60;;;5.10;;
23317;SDS011;11831;55.918;37.746;2023-06-22T12:35:15;6.47;;;5.47;;
23317;SDS011;11831;55.918;37.746;2023-06-22T12:37:42;6.75;;;5.07;;
23317;SDS011;11831;55.918;37.746;2023-06-22T12:40:09;12.23;;;5.40;;
23317;SDS011;11831;55.918;37.746;2023-06-22T12:42:36;8.38;;;5.68;;
23317;SDS011;11831;55.918;37.746;2023-06-22T12:45:03;5.95;;;5.37;;
23317;SDS011;11831;55.918;37.746;2023-06-22T12:47:32;10.67;;;8.43;;
23317;SDS011;11831;55.918;37.746;2023-06-22T12:49:59;5.82;;;4.93;;
23317;SDS011;11831;55.918;37.746;2023-06-22T12:52:26;6.78;;;5.50;;
23317;SDS011;11831;55.918;37.746;2023-06-22T12:54:52;6.90;;;4.87;;
23317;SDS011;11831;55.918;37.746;2023-06-22T12:57:20;6.95;;;5.87;;
23317;SDS011;11831;55.918;37.746;2023-06-22T12:59:46;6.40;;;5.57;;
23317;SDS011;11831;55.918;37.746;2023-06-22T13:02:13;6.07;;;5.47;;
23317;SDS011;11831;55.918;37.746;2023-06-22T13:04:40;6.57;;;5.72;;
23317;SDS011;11831;55.918;37.746;2023-06-22T13:07:06;8.30;;;5.62;;
23317;SDS011;11831;55.918;37.746;2023-06-22T13:09:38;6.28;;;5.30;;
23317;SDS011;11831;55.918;37.746;2023-06-22T13:12:04;6.45;;;5.20;;
23317;SDS011;11831;55.918;37.746;2023-06-22T13:14:31;7.28;;;6.05;;
23317;SDS011;11831;55.918;37.746;2023-06-22T13:16:58;8.50;;;5.85;;
23317;SDS011;11831;55.918;37.746;2023-06-22T13:19:24;6.35;;;5.75;;
23317;SDS011;11831;55.918;37.746;2023-06-22T13:21:51;8.80;;;5.53;;
23317;SDS011;11831;55.918;37.746;2023-06-22T13:24:18;7.00;;;6.30;;
23317;SDS011;11831;55.918;37.746;2023-06-22T13:26:45;14.87;;;6.25;;
23317;SDS011;11831;55.918;37.746;2023-06-22T13:29:11;7.50;;;6.40;;
23317;SDS011;11831;55.918;37.746;2023-06-22T13:31:37;6.93;;;5.72;;
23317;SDS011;11831;55.918;37.746;2023-06-22T13:34:04;7.28;;;5.62;;
23317;SDS011;11831;55.918;37.746;2023-06-22T13:36:31;8.98;;;5.53;;
23317;SDS011;11831;55.918;37.746;2023-06-22T13:38:58;8.55;;;5.85;;
23317;SDS011;11831;55.918;37.746;2023-06-22T13:41:24;6.70;;;5.72;;
23317;SDS011;11831;55.918;37.746;2023-06-22T13:43:51;8.07;;;5.65;;
23317;SDS011;11831;55.918;37.746;2023-06-22T13:46:21;11.82;;;6.00;;
23317;SDS011;11831;55.918;37.746;2023-06-22T13:48:50;8.52;;;6.25;;
23317;SDS011;11831;55.918;37.746;2023-06-22T13:51:17;7.07;;;6.20;;
23317;SDS011;11831;55.918;37.746;2023-06-22T13:53:43;7.68;;;6.68;;
23317;SDS011;11831;55.918;37.746;2023-06-22T13:56:10;7.07;;;5.80;;
23317;SDS011;11831;55.918;37.746;2023-06-22T13:58:36;7.50;;;5.90;;
23317;SDS011;11831;55.918;37.746;2023-06-22T14:01:03;11.82;;;6.47;;
23317;SDS011;11831;55.918;37.746;2023-06-22T14:03:29;6.93;;;6.00;;
23317;SDS011;11831;55.918;37.746;2023-06-22T14:05:56;13.90;;;6.28;;
23317;SDS011;11831;55.918;37.746;2023-06-22T14:08:24;6.68;;;6.12;;
23317;SDS011;11831;55.918;37.746;2023-06-22T14:10:52;7.93;;;6.25;;
23317;SDS011;11831;55.918;37.746;2023-06-22T14:13:19;9.25;;;6.87;;
23317;SDS011;11831;55.918;37.746;2023-06-22T14:15:46;6.60;;;6.10;;
23317;SDS011;11831;55.918;37.746;2023-06-22T14:18:15;8.90;;;5.80;;
23317;SDS011;11831;55.918;37.746;2023-06-22T14:20:41;5.90;;;5.47;;
23317;SDS011;11831;55.918;37.746;2023-06-22T14:23:08;6.65;;;6.00;;
23317;SDS011;11831;55.918;37.746;2023-06-22T14:25:35;8.27;;;6.18;;
23317;SDS011;11831;55.918;37.746;2023-06-22T14:28:01;10.80;;;6.72;;
23317;SDS011;11831;55.918;37.746;2023-06-22T14:30:28;6.65;;;5.80;;
23317;SDS011;11831;55.918;37.746;2023-06-22T14:32:54;6.72;;;6.00;;
23317;SDS011;11831;55.918;37.746;2023-06-22T14:35:20;7.10;;;6.50;;
23317;SDS011;11831;55.918;37.746;2023-06-22T14:37:47;9.70;;;6.62;;
23317;SDS011;11831;55.918;37.746;2023-06-22T14:40:15;6.53;;;5.93;;
23317;SDS011;11831;55.918;37.746;2023-06-22T14:42:42;6.53;;;5.80;;